Terminal Aerodrome Forecast
Issued by NWS

Home | Current Version | Previous Version | Text Only | Print | Product List | Glossary On
Versions: 1 2 3 4 5 6 7 8 9 10 11 12 13 14 15 16 17
013
FTUS45 KTFX 302320
TAFHLN
TAF
KHLN 302320Z 3100/3124 33011KT P6SM SCT040 OVC090
     FM310500 32015KT 4SM -SHRA BKN015 OVC030
     FM310900 32011KT 2SM -SHRA BKN010 OVC020
     FM311500 33012KT 4SM BR VCSH BKN015 OVC030
     FM311900 32014KT P6SM SCT025 BKN040=

USA.gov is the U.S. government's official web portal to all federal, state and local government web resources and services.